createdAt,value
2022-08-02T00:00:55.573Z,100.00
2022-08-02T00:03:24.593Z,100.00
2022-08-02T00:05:53.064Z,100.00
2022-08-02T00:08:21.020Z,100.00
2022-08-02T00:10:47.482Z,100.00
2022-08-02T00:13:13.972Z,100.00
2022-08-02T00:15:40.383Z,100.00
2022-08-02T00:18:06.844Z,100.00
2022-08-02T00:20:33.303Z,100.00
2022-08-02T00:22:59.718Z,100.00
2022-08-02T00:25:26.189Z,100.00
2022-08-02T00:27:52.604Z,100.00
2022-08-02T00:30:19.037Z,100.00
2022-08-02T00:32:45.436Z,100.00
2022-08-02T00:35:11.864Z,100.00
2022-08-02T00:37:39.916Z,100.00
2022-08-02T00:40:07.341Z,100.00
2022-08-02T00:42:33.853Z,100.00
2022-08-02T00:45:00.333Z,100.00
2022-08-02T00:47:26.741Z,100.00
2022-08-02T00:49:53.162Z,100.00
2022-08-02T00:52:19.655Z,100.00
2022-08-02T00:54:46.078Z,100.00
2022-08-02T00:57:12.487Z,100.00
2022-08-02T00:59:38.953Z,100.00
2022-08-02T01:02:05.420Z,100.00
2022-08-02T01:04:32.453Z,100.00
2022-08-02T01:07:00.639Z,100.00
2022-08-02T01:09:27.430Z,100.00
2022-08-02T01:11:53.862Z,100.00
2022-08-02T01:14:20.725Z,100.00
2022-08-02T01:17:05.572Z,100.00
2022-08-02T01:19:37.626Z,100.00
2022-08-02T01:22:58.106Z,100.00
2022-08-02T01:25:40.972Z,100.00
2022-08-02T01:28:46.344Z,100.00
2022-08-02T01:31:26.603Z,100.00
2022-08-02T01:34:13.706Z,100.00
2022-08-02T01:36:44.273Z,100.00
2022-08-02T01:39:26.388Z,100.00
2022-08-02T01:41:59.199Z,100.00
2022-08-02T01:44:27.147Z,100.00
2022-08-02T01:46:58.074Z,100.00
2022-08-02T01:49:25.107Z,100.00
2022-08-02T01:52:11.636Z,100.00
2022-08-02T01:54:38.833Z,100.00
2022-08-02T01:57:06.821Z,100.00
2022-08-02T01:59:33.643Z,100.00
2022-08-02T02:02:01.330Z,100.00
2022-08-02T02:04:29.726Z,100.00
2022-08-02T02:06:59.873Z,100.00
2022-08-02T02:09:29.474Z,100.00
2022-08-02T02:12:11.427Z,100.00
2022-08-02T02:14:41.417Z,100.00
2022-08-02T02:17:50.751Z,100.00
2022-08-02T02:20:06.349Z,100.00
2022-08-02T02:22:32.806Z,100.00
2022-08-02T02:24:59.268Z,100.00
2022-08-02T02:27:27.288Z,100.00
2022-08-02T02:29:54.177Z,100.00
2022-08-02T02:32:21.263Z,100.00
2022-08-02T02:34:50.065Z,100.00
2022-08-02T02:37:19.314Z,100.00
2022-08-02T02:39:46.220Z,100.00
2022-08-02T02:42:15.218Z,100.00
2022-08-02T02:44:42.952Z,100.00
2022-08-02T02:47:10.264Z,100.00
2022-08-02T02:49:37.942Z,100.00
2022-08-02T02:52:06.072Z,100.00
2022-08-02T02:54:35.410Z,100.00
2022-08-02T02:57:03.216Z,100.00
2022-08-02T02:59:30.380Z,100.00
2022-08-02T03:01:58.311Z,100.00
2022-08-02T03:04:27.347Z,100.00
2022-08-02T03:07:02.628Z,100.00
2022-08-02T03:09:29.174Z,100.00
2022-08-02T03:11:55.832Z,100.00
2022-08-02T03:14:22.679Z,100.00
2022-08-02T03:16:54.010Z,100.00
2022-08-02T03:19:21.831Z,100.00
2022-08-02T03:21:56.122Z,100.00
2022-08-02T03:24:28.215Z,100.00
2022-08-02T03:26:54.841Z,100.00
2022-08-02T03:29:21.269Z,100.00
2022-08-02T03:31:47.775Z,100.00
2022-08-02T03:34:14.242Z,100.00
2022-08-02T03:36:41.513Z,100.00
2022-08-02T03:39:08.185Z,100.00
2022-08-02T03:41:36.134Z,100.00
2022-08-02T03:44:02.941Z,100.00
2022-08-02T03:46:29.432Z,100.00
2022-08-02T03:48:56.381Z,100.00
2022-08-02T03:51:22.934Z,100.00
2022-08-02T03:53:50.089Z,100.00
2022-08-02T03:56:16.811Z,100.00
2022-08-02T03:58:48.485Z,100.00
2022-08-02T04:01:16.156Z,100.00
2022-08-02T04:03:42.729Z,100.00
2022-08-02T04:06:09.185Z,100.00
2022-08-02T04:08:38.453Z,100.00
2022-08-02T04:11:24.236Z,100.00
2022-08-02T04:13:50.710Z,100.00
2022-08-02T04:16:21.955Z,100.00
2022-08-02T04:18:52.606Z,100.00
2022-08-02T04:21:21.008Z,100.00
2022-08-02T04:23:48.792Z,100.00
2022-08-02T04:26:15.721Z,100.00
2022-08-02T04:28:43.214Z,100.00
2022-08-02T04:31:10.057Z,100.00
2022-08-02T04:33:37.518Z,100.00
2022-08-02T04:36:06.042Z,100.00
2022-08-02T04:38:32.548Z,100.00
2022-08-02T04:40:59.085Z,100.00
2022-08-02T04:43:25.759Z,100.00
2022-08-02T04:45:54.451Z,100.00
2022-08-02T04:48:21.764Z,100.00
2022-08-02T04:50:48.223Z,100.00
2022-08-02T04:53:14.681Z,100.00
2022-08-02T04:55:41.189Z,100.00
2022-08-02T04:58:37.009Z,100.00
2022-08-02T05:00:54.220Z,100.00
2022-08-02T05:03:20.720Z,100.00
2022-08-02T05:05:47.128Z,100.00
2022-08-02T05:08:13.550Z,100.00
2022-08-02T05:10:39.961Z,100.00
2022-08-02T05:13:06.465Z,100.00
2022-08-02T05:15:33.509Z,100.00
2022-08-02T05:18:00.113Z,100.00
2022-08-02T05:20:26.554Z,100.00
2022-08-02T05:22:53.042Z,100.00
2022-08-02T05:25:19.517Z,100.00
2022-08-02T05:27:46.002Z,100.00
2022-08-02T05:30:12.623Z,100.00
2022-08-02T05:32:50.532Z,100.00
2022-08-02T05:35:22.071Z,100.00
2022-08-02T05:37:49.557Z,100.00
2022-08-02T05:40:16.670Z,100.00
2022-08-02T05:42:43.498Z,100.00
2022-08-02T05:45:10.554Z,100.00
2022-08-02T05:47:37.555Z,100.00
2022-08-02T05:50:05.827Z,100.00
2022-08-02T05:52:37.065Z,100.00
2022-08-02T05:55:10.000Z,100.00
2022-08-02T05:57:53.157Z,100.00
2022-08-02T06:00:20.277Z,100.00
2022-08-02T06:02:58.752Z,100.00
2022-08-02T06:05:27.008Z,100.00
2022-08-02T06:07:55.170Z,100.00
2022-08-02T06:10:22.084Z,100.00
2022-08-02T06:13:14.135Z,100.00
2022-08-02T06:15:52.665Z,100.00
2022-08-02T06:18:28.565Z,100.00
2022-08-02T06:20:59.333Z,100.00
2022-08-02T06:23:56.639Z,100.00
2022-08-02T06:26:26.752Z,100.00
2022-08-02T06:28:54.490Z,100.00
2022-08-02T06:31:20.968Z,100.00
2022-08-02T06:33:48.096Z,100.00
2022-08-02T06:36:40.968Z,100.00
2022-08-02T06:39:20.856Z,100.00
2022-08-02T06:41:49.843Z,100.00
2022-08-02T06:47:11.633Z,100.00
2022-08-02T06:49:51.617Z,100.00
2022-08-02T06:52:25.607Z,100.00
2022-08-02T06:54:55.466Z,100.00
2022-08-02T06:57:21.936Z,100.00
2022-08-02T06:59:48.407Z,100.00
2022-08-02T07:02:14.862Z,100.00
2022-08-02T07:04:41.318Z,100.00
2022-08-02T07:07:07.755Z,100.00
2022-08-02T07:09:34.205Z,100.00
2022-08-02T07:12:00.672Z,100.00
2022-08-02T07:14:27.106Z,100.00
2022-08-02T07:16:53.629Z,100.00
2022-08-02T07:19:20.057Z,100.00
2022-08-02T07:21:56.648Z,100.00
2022-08-02T07:24:24.599Z,100.00
2022-08-02T07:27:10.610Z,100.00
2022-08-02T07:29:44.953Z,100.00
2022-08-02T07:32:17.694Z,100.00
2022-08-02T07:34:51.015Z,100.00
2022-08-02T07:37:53.759Z,100.00
2022-08-02T07:40:19.977Z,100.00
2022-08-02T07:42:48.563Z,100.00
2022-08-02T07:45:15.022Z,100.00
2022-08-02T07:47:42.993Z,100.00
2022-08-02T07:50:10.121Z,100.00
2022-08-02T07:52:36.860Z,100.00
2022-08-02T07:55:04.299Z,100.00
2022-08-02T07:57:30.973Z,100.00
2022-08-02T07:59:57.581Z,100.00
2022-08-02T08:02:24.988Z,99.75
2022-08-02T08:04:52.070Z,93.24
2022-08-02T08:07:18.632Z,91.60
2022-08-02T08:09:47.254Z,90.81
2022-08-02T08:12:14.171Z,89.75
2022-08-02T08:14:42.006Z,85.18
2022-08-02T08:17:08.733Z,82.31
2022-08-02T08:19:50.576Z,78.23
2022-08-02T08:22:18.414Z,78.24
2022-08-02T08:24:45.310Z,79.95
2022-08-02T08:27:14.570Z,77.39
2022-08-02T08:29:44.921Z,75.83
2022-08-02T08:32:16.222Z,71.17
2022-08-02T08:34:43.949Z,69.38
2022-08-02T08:37:17.178Z,69.76
2022-08-02T08:39:57.514Z,70.59
2022-08-02T08:42:30.254Z,66.11
2022-08-02T08:44:57.532Z,67.25
2022-08-02T08:47:33.828Z,69.00
2022-08-02T08:50:04.450Z,66.50
2022-08-02T08:52:35.410Z,66.47
2022-08-02T08:55:04.142Z,66.09
2022-08-02T08:57:31.410Z,66.17
2022-08-02T08:59:58.199Z,65.42
2022-08-02T09:02:27.904Z,63.81
2022-08-02T09:04:55.484Z,62.57
2022-08-02T09:07:23.230Z,60.78
2022-08-02T09:09:49.718Z,60.60
2022-08-02T09:12:17.373Z,60.57
2022-08-02T09:14:46.383Z,60.68
2022-08-02T09:17:16.796Z,60.85
2022-08-02T09:19:46.070Z,61.51
2022-08-02T09:22:14.787Z,61.55
2022-08-02T09:24:49.912Z,60.80
2022-08-02T09:27:18.062Z,60.16
2022-08-02T09:30:12.621Z,61.97
2022-08-02T09:32:47.988Z,61.38
2022-08-02T09:35:31.193Z,62.99
2022-08-02T09:38:17.584Z,60.31
2022-08-02T09:40:44.320Z,59.87
2022-08-02T09:43:10.877Z,59.82
2022-08-02T09:45:37.695Z,59.38
2022-08-02T09:48:08.190Z,59.02
2022-08-02T09:50:36.552Z,58.12
2022-08-02T09:53:03.998Z,58.44
2022-08-02T09:55:30.689Z,59.03
2022-08-02T09:57:57.594Z,58.09
2022-08-02T10:00:43.365Z,58.61
2022-08-02T10:03:14.860Z,57.98
2022-08-02T10:05:55.569Z,56.81
2022-08-02T10:08:22.934Z,56.94
2022-08-02T10:10:49.373Z,55.92
2022-08-02T10:13:21.614Z,55.26
2022-08-02T10:15:50.379Z,55.83
2022-08-02T10:18:37.018Z,55.06
2022-08-02T10:21:07.092Z,54.90
2022-08-02T10:23:36.513Z,54.43
2022-08-02T10:26:03.361Z,55.22
2022-08-02T10:28:32.667Z,55.55
2022-08-02T10:31:01.443Z,57.19
2022-08-02T10:33:33.359Z,58.13
2022-08-02T10:36:07.134Z,60.26
2022-08-02T10:38:34.922Z,60.39
2022-08-02T10:41:01.408Z,61.36
2022-08-02T10:43:36.606Z,60.51
2022-08-02T10:46:20.569Z,59.74
2022-08-02T10:52:03.266Z,56.94
2022-08-02T10:54:56.395Z,56.18
2022-08-02T10:57:28.354Z,55.69
2022-08-02T10:59:56.077Z,56.84
2022-08-02T11:02:42.978Z,56.60
2022-08-02T11:05:43.150Z,56.74
2022-08-02T11:08:20.991Z,55.73
2022-08-02T11:10:47.721Z,54.22
2022-08-02T11:13:16.167Z,53.11
2022-08-02T11:16:02.043Z,53.50
2022-08-02T11:18:43.680Z,54.05
2022-08-02T11:21:23.572Z,54.70
2022-08-02T11:23:50.684Z,53.96
2022-08-02T11:26:29.198Z,51.81
2022-08-02T11:28:56.169Z,52.43
2022-08-02T11:31:22.603Z,50.85
2022-08-02T11:33:50.050Z,51.17
2022-08-02T11:36:17.141Z,51.09
2022-08-02T11:38:43.649Z,50.92
2022-08-02T11:41:11.277Z,50.88
2022-08-02T11:43:38.112Z,49.09
2022-08-02T11:46:04.898Z,50.48
2022-08-02T11:48:36.621Z,50.43
2022-08-02T11:51:10.394Z,50.70
2022-08-02T11:53:53.352Z,51.51
2022-08-02T11:56:29.908Z,52.38
2022-08-02T11:59:07.763Z,50.56
2022-08-02T12:01:45.059Z,49.46
2022-08-02T12:04:16.404Z,49.22
2022-08-02T12:06:43.916Z,48.63
2022-08-02T12:09:19.046Z,49.67
2022-08-02T12:11:49.183Z,49.75
2022-08-02T12:14:15.677Z,49.95
2022-08-02T12:17:00.405Z,50.66
2022-08-02T12:19:27.750Z,51.25
2022-08-02T12:22:20.211Z,50.34
2022-08-02T12:24:53.863Z,51.04
2022-08-02T12:27:34.945Z,50.51
2022-08-02T12:30:17.423Z,50.01
2022-08-02T12:32:54.045Z,49.49
2022-08-02T12:35:26.476Z,48.93
2022-08-02T12:37:53.651Z,49.76
2022-08-02T12:40:29.644Z,49.01
2022-08-02T12:42:58.814Z,48.07
2022-08-02T12:45:27.085Z,47.96
2022-08-02T12:48:05.809Z,47.93
2022-08-02T12:50:37.057Z,47.23
2022-08-02T12:53:14.605Z,47.70
2022-08-02T12:56:01.998Z,47.81
2022-08-02T12:58:30.642Z,48.17
2022-08-02T13:01:01.550Z,48.81
2022-08-02T13:04:10.697Z,47.02
2022-08-02T13:06:40.760Z,48.29
2022-08-02T13:09:02.850Z,49.67
2022-08-02T13:11:29.458Z,49.70
2022-08-02T13:13:55.982Z,47.78
2022-08-02T13:16:30.630Z,46.80
2022-08-02T13:18:57.778Z,46.12
2022-08-02T13:21:41.694Z,46.31
2022-08-02T13:24:33.200Z,45.65
2022-08-02T13:26:59.273Z,46.49
2022-08-02T13:29:31.134Z,44.97
2022-08-02T13:31:57.605Z,44.10
2022-08-02T13:34:24.199Z,43.55
2022-08-02T13:36:50.617Z,43.94
2022-08-02T13:39:17.026Z,42.59
2022-08-02T13:41:43.455Z,41.35
2022-08-02T13:44:11.022Z,41.25
2022-08-02T13:46:45.681Z,41.50
2022-08-02T13:49:18.506Z,40.02
2022-08-02T13:51:45.967Z,41.08
2022-08-02T13:54:12.430Z,40.04
2022-08-02T13:56:38.864Z,40.18
2022-08-02T13:59:54.474Z,40.71
2022-08-02T14:01:52.599Z,39.73
2022-08-02T14:04:19.143Z,39.65
2022-08-02T14:06:45.558Z,39.98
2022-08-02T14:09:15.490Z,40.33
2022-08-02T14:11:44.299Z,40.96
2022-08-02T14:14:16.349Z,41.17
2022-08-02T14:16:45.037Z,41.34
2022-08-02T14:19:15.656Z,40.83
2022-08-02T14:21:46.492Z,41.30
2022-08-02T14:24:13.920Z,40.93
2022-08-02T14:26:40.326Z,40.49
2022-08-02T14:29:06.763Z,42.25
2022-08-02T14:31:33.181Z,41.66
2022-08-02T14:33:59.685Z,40.78
2022-08-02T14:36:27.406Z,38.75
2022-08-02T14:38:55.272Z,37.99
2022-08-02T14:41:22.447Z,37.88
2022-08-02T14:44:04.026Z,37.47
2022-08-02T14:46:35.817Z,38.27
2022-08-02T14:49:03.666Z,38.72
2022-08-02T14:51:31.564Z,39.45
2022-08-02T14:54:02.812Z,40.11
2022-08-02T14:56:29.726Z,41.39
2022-08-02T14:58:56.193Z,41.67
2022-08-02T15:01:26.120Z,42.10
2022-08-02T15:03:53.059Z,42.28
2022-08-02T15:06:19.679Z,42.40
2022-08-02T15:08:46.106Z,42.74
2022-08-02T15:11:12.540Z,42.62
2022-08-02T15:13:42.517Z,42.24
2022-08-02T15:16:09.345Z,42.89
2022-08-02T15:18:35.834Z,42.75
2022-08-02T15:21:07.986Z,43.83
2022-08-02T15:23:48.771Z,43.15
2022-08-02T15:26:15.228Z,42.99
2022-08-02T15:28:41.653Z,42.93
2022-08-02T15:31:08.076Z,43.36
2022-08-02T15:33:34.589Z,42.99
2022-08-02T15:36:01.361Z,44.39
2022-08-02T15:38:27.857Z,43.60
2022-08-02T15:40:54.305Z,43.54
2022-08-02T15:43:21.479Z,43.82
2022-08-02T15:45:47.894Z,44.20
2022-08-02T15:48:14.443Z,44.53
2022-08-02T15:50:40.865Z,43.92
2022-08-02T15:53:07.539Z,44.88
2022-08-02T15:55:40.098Z,44.43
2022-08-02T15:58:22.302Z,43.57
2022-08-02T16:00:49.397Z,45.00
2022-08-02T16:03:15.902Z,43.90
2022-08-02T16:05:42.323Z,44.36
2022-08-02T16:08:08.732Z,44.04
2022-08-02T16:10:35.180Z,44.75
2022-08-02T16:13:20.335Z,44.09
2022-08-02T16:15:46.737Z,44.50
2022-08-02T16:18:13.169Z,44.03
2022-08-02T16:20:39.717Z,44.38
2022-08-02T16:23:06.215Z,44.64
2022-08-02T16:25:32.626Z,44.79
2022-08-02T16:28:06.903Z,44.57
2022-08-02T16:30:34.687Z,44.51
2022-08-02T16:33:01.202Z,45.16
2022-08-02T16:35:30.686Z,44.91
2022-08-02T16:37:57.140Z,44.99
2022-08-02T16:40:23.710Z,45.19
2022-08-02T16:42:50.557Z,45.27
2022-08-02T16:45:19.976Z,44.96
2022-08-02T16:47:55.174Z,45.41
2022-08-02T16:50:28.044Z,45.72
2022-08-02T16:53:17.193Z,46.74
2022-08-02T16:55:57.933Z,46.49
2022-08-02T16:58:24.424Z,46.59
2022-08-02T17:00:51.582Z,45.37
2022-08-02T17:03:18.661Z,46.21
2022-08-02T17:05:55.777Z,45.36
2022-08-02T17:08:23.470Z,44.80
2022-08-02T17:10:58.741Z,45.07
2022-08-02T17:13:30.186Z,45.68
2022-08-02T17:16:16.569Z,45.16
2022-08-02T17:18:43.215Z,45.75
2022-08-02T17:21:15.678Z,46.96
2022-08-02T17:24:03.833Z,45.58
2022-08-02T17:26:31.284Z,45.75
2022-08-02T17:29:16.534Z,45.79
2022-08-02T17:32:02.470Z,45.83
2022-08-02T17:34:33.425Z,46.42
2022-08-02T17:37:00.071Z,46.38
2022-08-02T17:39:29.314Z,46.37
2022-08-02T17:42:00.611Z,46.75
2022-08-02T17:44:37.666Z,47.04
2022-08-02T17:47:07.280Z,46.73
2022-08-02T17:49:42.763Z,47.18
2022-08-02T17:52:16.041Z,47.24
2022-08-02T17:54:57.578Z,47.27
2022-08-02T17:57:24.028Z,47.98
2022-08-02T18:00:11.104Z,47.76
2022-08-02T18:02:38.995Z,47.82
2022-08-02T18:05:05.774Z,48.40
2022-08-02T18:07:43.323Z,49.02
2022-08-02T18:10:17.737Z,49.15
2022-08-02T18:12:45.889Z,49.29
2022-08-02T18:15:14.381Z,49.92
2022-08-02T18:17:41.319Z,49.84
2022-08-02T18:20:11.021Z,49.04
2022-08-02T18:22:37.944Z,50.07
2022-08-02T18:25:09.353Z,50.18
2022-08-02T18:27:36.197Z,50.61
2022-08-02T18:30:07.788Z,50.34
2022-08-02T18:33:55.283Z,50.84
2022-08-02T18:35:21.338Z,53.17
2022-08-02T18:37:57.043Z,52.90
2022-08-02T18:40:27.364Z,52.40
2022-08-02T18:42:53.952Z,52.67
2022-08-02T18:45:21.223Z,53.36
2022-08-02T18:47:50.922Z,53.40
2022-08-02T18:50:18.791Z,53.60
2022-08-02T18:52:47.518Z,55.01
2022-08-02T18:55:17.277Z,55.65
2022-08-02T18:58:19.274Z,57.33
2022-08-02T19:00:47.744Z,59.36
2022-08-02T19:03:18.809Z,61.93
2022-08-02T19:05:52.230Z,61.84
2022-08-02T19:08:25.584Z,64.06
2022-08-02T19:10:53.775Z,65.07
2022-08-02T19:13:23.037Z,68.19
2022-08-02T19:15:49.497Z,69.43
2022-08-02T19:18:15.937Z,73.49
2022-08-02T19:20:48.009Z,72.70
2022-08-02T19:23:15.078Z,72.29
2022-08-02T19:25:50.057Z,73.51
2022-08-02T19:28:16.888Z,79.07
2022-08-02T19:30:52.877Z,79.51
2022-08-02T19:33:54.340Z,79.98
2022-08-02T19:36:07.084Z,81.46
2022-08-02T19:38:33.498Z,77.88
2022-08-02T19:40:59.953Z,75.89
2022-08-02T19:44:22.978Z,75.01
2022-08-02T19:46:16.020Z,75.29
2022-08-02T19:48:42.909Z,79.37
2022-08-02T19:51:12.910Z,89.65
2022-08-02T19:53:48.899Z,89.62
2022-08-02T19:56:25.220Z,89.78
2022-08-02T19:58:57.602Z,85.19
2022-08-02T20:01:36.598Z,86.50
2022-08-02T20:04:07.538Z,89.56
2022-08-02T20:06:42.046Z,97.34
2022-08-02T20:09:12.872Z,97.01
2022-08-02T20:11:44.338Z,97.68
2022-08-02T20:14:10.855Z,96.39
2022-08-02T20:16:39.796Z,95.51
2022-08-02T20:19:08.255Z,93.44
2022-08-02T20:21:37.173Z,94.42
2022-08-02T20:24:09.252Z,95.70
2022-08-02T20:26:38.171Z,97.20
2022-08-02T20:29:05.010Z,100.00
2022-08-02T20:31:31.507Z,100.00
2022-08-02T20:33:57.951Z,100.00
2022-08-02T20:36:27.834Z,100.00
2022-08-02T20:38:55.203Z,100.00
2022-08-02T20:41:23.321Z,100.00
2022-08-02T20:43:50.180Z,100.00
2022-08-02T20:46:16.605Z,100.00
2022-08-02T20:48:44.079Z,100.00
2022-08-02T20:51:12.118Z,100.00
2022-08-02T20:53:54.838Z,100.00
2022-08-02T20:56:23.124Z,100.00
2022-08-02T20:58:52.004Z,100.00
2022-08-02T21:01:21.133Z,100.00
2022-08-02T21:03:58.452Z,100.00
2022-08-02T21:06:28.016Z,100.00
2022-08-02T21:08:54.840Z,100.00
2022-08-02T21:11:25.513Z,100.00
2022-08-02T21:14:07.473Z,100.00
2022-08-02T21:16:35.866Z,100.00
2022-08-02T21:19:02.621Z,100.00
2022-08-02T21:21:30.002Z,100.00
2022-08-02T21:23:56.946Z,100.00
2022-08-02T21:26:28.191Z,100.00
2022-08-02T21:28:56.777Z,100.00
2022-08-02T21:31:23.323Z,100.00
2022-08-02T21:33:59.479Z,100.00
2022-08-02T21:36:33.134Z,100.00
2022-08-02T21:39:08.897Z,100.00
2022-08-02T21:41:39.066Z,100.00
2022-08-02T21:44:13.799Z,100.00
2022-08-02T21:46:44.334Z,100.00
2022-08-02T21:49:12.404Z,100.00
2022-08-02T21:51:39.129Z,100.00
2022-08-02T21:54:18.474Z,100.00
2022-08-02T21:56:55.226Z,100.00
2022-08-02T21:59:25.413Z,100.00
2022-08-02T22:01:56.997Z,100.00
2022-08-02T22:04:24.486Z,100.00
2022-08-02T22:06:51.019Z,100.00
2022-08-02T22:09:43.628Z,100.00
2022-08-02T22:12:06.573Z,100.00
2022-08-02T22:14:37.219Z,100.00
2022-08-02T22:17:08.716Z,100.00
2022-08-02T22:19:39.869Z,100.00
2022-08-02T22:22:20.301Z,100.00
2022-08-02T22:24:46.807Z,100.00
2022-08-02T22:27:14.094Z,100.00
2022-08-02T22:29:40.527Z,100.00
2022-08-02T22:32:07.273Z,100.00
2022-08-02T22:34:51.167Z,100.00
2022-08-02T22:38:17.336Z,100.00
2022-08-02T22:40:09.279Z,100.00
2022-08-02T22:42:36.579Z,100.00
2022-08-02T22:45:07.408Z,100.00
2022-08-02T22:47:38.496Z,100.00
2022-08-02T22:50:05.621Z,100.00
2022-08-02T22:52:38.269Z,100.00
2022-08-02T22:55:05.110Z,100.00
2022-08-02T22:57:33.072Z,100.00
2022-08-02T23:00:19.581Z,100.00
2022-08-02T23:02:45.993Z,100.00
2022-08-02T23:05:13.091Z,100.00
2022-08-02T23:07:39.648Z,100.00
2022-08-02T23:10:07.744Z,100.00
2022-08-02T23:12:34.473Z,100.00
2022-08-02T23:15:00.931Z,100.00
2022-08-02T23:17:45.748Z,100.00
2022-08-02T23:20:15.206Z,100.00
2022-08-02T23:22:42.349Z,100.00
2022-08-02T23:25:09.655Z,100.00
2022-08-02T23:27:36.074Z,100.00
2022-08-02T23:30:03.907Z,100.00
2022-08-02T23:32:30.337Z,100.00
2022-08-02T23:34:57.904Z,100.00
2022-08-02T23:37:24.754Z,100.00
2022-08-02T23:39:51.642Z,100.00
2022-08-02T23:42:18.253Z,100.00
2022-08-02T23:44:45.069Z,100.00
2022-08-02T23:47:11.493Z,100.00
2022-08-02T23:49:38.101Z,100.00
2022-08-02T23:52:04.686Z,100.00
2022-08-02T23:54:31.088Z,100.00
2022-08-02T23:56:57.614Z,100.00
2022-08-02T23:59:24.067Z,100.00
